Time,TemperatureF,DewpointF,PressureIn,WindDirection,WindDirectionDegrees,WindSpeedMPH,WindSpeedGustMPH,Humidity,HourlyPrecipIn,Conditions,Clouds,dailyrainin,SoftwareType,DateUTC
2013-01-05 00:04:00,28.5,23.7,30.27,WSW,251,3.0,4.0,82,0.00,,,0.00,Wunderground v.1.15,2013-01-05 06:04:00,
2013-01-05 00:10:00,28.3,23.5,30.27,WSW,250,2.0,3.0,82,0.00,,,0.00,Wunderground v.1.15,2013-01-05 06:10:00,
2013-01-05 00:16:00,28.2,23.4,30.28,WSW,238,2.0,6.0,82,0.00,,,0.00,Wunderground v.1.15,2013-01-05 06:16:00,
2013-01-05 00:22:00,28.1,23.3,30.27,WSW,239,3.0,5.0,82,0.00,,,0.00,Wunderground v.1.15,2013-01-05 06:22:00,
2013-01-05 00:28:00,28.0,23.2,30.27,WSW,248,3.0,4.0,82,0.00,,,0.00,Wunderground v.1.15,2013-01-05 06:28:00,
2013-01-05 00:34:00,28.0,23.2,30.27,SSW,211,2.0,4.0,82,0.00,,,0.00,Wunderground v.1.15,2013-01-05 06:34:00,
2013-01-05 00:40:00,28.0,23.2,30.27,SW,223,2.0,2.0,82,0.00,,,0.00,Wunderground v.1.15,2013-01-05 06:40:00,
2013-01-05 00:46:00,28.1,23.3,30.27,WSW,250,2.0,2.0,82,0.00,,,0.00,Wunderground v.1.15,2013-01-05 06:46:00,
2013-01-05 00:52:00,28.1,23.3,30.27,SSW,201,2.0,3.0,82,0.00,,,0.00,Wunderground v.1.15,2013-01-05 06:52:00,
2013-01-05 00:58:00,28.1,23.3,30.27,West,267,2.0,2.0,82,0.00,,,0.00,Wunderground v.1.15,2013-01-05 06:58:00,
2013-01-05 01:04:00,28.0,23.2,30.27,West,267,2.0,3.0,82,0.00,,,0.00,Wunderground v.1.15,2013-01-05 07:04:00,
2013-01-05 01:10:00,28.0,23.2,30.27,West,267,1.0,2.0,82,0.00,,,0.00,Wunderground v.1.15,2013-01-05 07:10:00,
2013-01-05 01:16:00,27.8,23.0,30.27,West,267,1.0,2.0,82,0.00,,,0.00,Wunderground v.1.15,2013-01-05 07:16:00,
2013-01-05 01:22:00,27.6,22.8,30.27,West,267,1.0,2.0,82,0.00,,,0.00,Wunderground v.1.15,2013-01-05 07:22:00,
2013-01-05 01:28:00,27.5,23.0,30.27,SSW,205,1.0,1.0,83,0.00,,,0.00,Wunderground v.1.15,2013-01-05 07:28:00,
2013-01-05 01:34:00,27.5,23.0,30.28,SSW,205,1.0,2.0,83,0.00,,,0.00,Wunderground v.1.15,2013-01-05 07:34:00,
2013-01-05 01:40:00,27.5,23.0,30.28,SSW,205,1.0,2.0,83,0.00,,,0.00,Wunderground v.1.15,2013-01-05 07:40:00,
2013-01-05 01:46:00,27.4,22.9,30.28,SSW,205,1.0,2.0,83,0.00,,,0.00,Wunderground v.1.15,2013-01-05 07:46:00,
2013-01-05 01:52:00,27.4,22.9,30.28,SSW,205,1.0,2.0,83,0.00,,,0.00,Wunderground v.1.15,2013-01-05 07:52:00,
2013-01-05 01:58:00,27.4,22.9,30.28,SSW,205,2.0,2.0,83,0.00,,,0.00,Wunderground v.1.15,2013-01-05 07:58:00,
2013-01-05 02:04:00,27.4,22.9,30.28,SSW,205,1.0,2.0,83,0.00,,,0.00,Wunderground v.1.15,2013-01-05 08:04:00,
2013-01-05 02:10:00,27.3,22.8,30.27,SSW,205,1.0,1.0,83,0.00,,,0.00,Wunderground v.1.15,2013-01-05 08:10:00,
2013-01-05 02:16:00,27.2,22.7,30.28,SSW,205,0.0,1.0,83,0.00,,,0.00,Wunderground v.1.15,2013-01-05 08:16:00,
2013-01-05 02:22:00,27.1,22.6,30.28,SSW,205,0.0,0.0,83,0.00,,,0.00,Wunderground v.1.15,2013-01-05 08:22:00,
2013-01-05 02:28:00,27.0,22.5,30.28,SSW,205,0.0,1.0,83,0.00,,,0.00,Wunderground v.1.15,2013-01-05 08:28:00,
2013-01-05 02:34:00,26.9,22.7,30.28,SSW,205,1.0,2.0,84,0.00,,,0.00,Wunderground v.1.15,2013-01-05 08:34:00,
2013-01-05 02:40:00,26.9,22.7,30.28,SSW,205,1.0,1.0,84,0.00,,,0.00,Wunderground v.1.15,2013-01-05 08:40:00,
2013-01-05 02:45:00,26.8,22.6,30.28,SSW,205,1.0,1.0,84,0.00,,,0.00,Wunderground v.1.15,2013-01-05 08:45:00,
2013-01-05 02:52:00,26.7,22.5,30.27,SSW,205,0.0,2.0,84,0.00,,,0.00,Wunderground v.1.15,2013-01-05 08:52:00,
2013-01-05 02:58:00,26.6,22.4,30.27,SSW,205,0.0,2.0,84,0.00,,,0.00,Wunderground v.1.15,2013-01-05 08:58:00,
2013-01-05 03:03:00,26.5,22.3,30.27,SSW,205,1.0,2.0,84,0.00,,,0.00,Wunderground v.1.15,2013-01-05 09:03:00,
2013-01-05 03:10:00,26.5,22.3,30.27,SSW,205,1.0,2.0,84,0.00,,,0.00,Wunderground v.1.15,2013-01-05 09:10:00,
2013-01-05 03:15:00,26.6,22.4,30.27,SSW,205,1.0,2.0,84,0.00,,,0.00,Wunderground v.1.15,2013-01-05 09:15:00,
2013-01-05 03:22:00,26.6,22.4,30.27,SSW,205,1.0,1.0,84,0.00,,,0.00,Wunderground v.1.15,2013-01-05 09:22:00,
2013-01-05 03:28:00,26.5,22.3,30.27,SSW,205,0.0,0.0,84,0.00,,,0.00,Wunderground v.1.15,2013-01-05 09:28:00,
2013-01-05 03:33:00,26.3,22.1,30.26,SSW,205,0.0,0.0,84,0.00,,,0.00,Wunderground v.1.15,2013-01-05 09:33:00,
2013-01-05 03:39:00,26.2,22.0,30.26,SSW,205,0.0,2.0,84,0.00,,,0.00,Wunderground v.1.15,2013-01-05 09:39:00,
2013-01-05 03:45:00,26.1,21.9,30.26,SSW,205,0.0,2.0,84,0.00,,,0.00,Wunderground v.1.15,2013-01-05 09:45:00,
2013-01-05 03:52:00,25.9,21.7,30.26,SSW,205,0.0,0.0,84,0.00,,,0.00,Wunderground v.1.15,2013-01-05 09:52:00,
2013-01-05 03:57:00,25.7,21.8,30.26,SSW,205,0.0,0.0,85,0.00,,,0.00,Wunderground v.1.15,2013-01-05 09:57:00,
2013-01-05 04:03:00,25.4,21.5,30.25,SSW,205,0.0,0.0,85,0.00,,,0.00,Wunderground v.1.15,2013-01-05 10:03:00,
2013-01-05 04:09:00,25.2,21.3,30.25,SSW,205,0.0,0.0,85,0.00,,,0.00,Wunderground v.1.15,2013-01-05 10:09:00,
2013-01-05 04:15:00,24.9,21.0,30.25,SSW,205,0.0,1.0,85,0.00,,,0.00,Wunderground v.1.15,2013-01-05 10:15:00,
2013-01-05 04:20:00,24.7,21.1,30.25,SSW,205,0.0,0.0,86,0.00,,,0.00,Wunderground v.1.15,2013-01-05 10:20:00,
2013-01-05 04:26:00,24.6,21.0,30.25,SSW,205,0.0,0.0,86,0.00,,,0.00,Wunderground v.1.15,2013-01-05 10:26:00,
2013-01-05 04:33:00,24.3,20.7,30.24,SSW,205,0.0,0.0,86,0.00,,,0.00,Wunderground v.1.15,2013-01-05 10:33:00,
2013-01-05 04:38:00,24.0,20.4,30.25,SSW,205,0.0,0.0,86,0.00,,,0.00,Wunderground v.1.15,2013-01-05 10:38:00,
2013-01-05 04:44:00,23.9,20.6,30.25,SSW,205,0.0,1.0,87,0.00,,,0.00,Wunderground v.1.15,2013-01-05 10:44:00,
2013-01-05 04:50:00,23.7,20.4,30.25,SSW,205,0.0,0.0,87,0.00,,,0.00,Wunderground v.1.15,2013-01-05 10:50:00,
2013-01-05 04:56:00,23.7,20.7,30.25,SSW,205,1.0,3.0,88,0.00,,,0.00,Wunderground v.1.15,2013-01-05 10:56:00,
2013-01-05 05:03:00,23.8,20.8,30.25,SSW,205,1.0,1.0,88,0.00,,,0.00,Wunderground v.1.15,2013-01-05 11:03:00,
2013-01-05 05:08:00,23.9,20.9,30.25,SSW,205,1.0,1.0,88,0.00,,,0.00,Wunderground v.1.15,2013-01-05 11:08:00,
2013-01-05 05:14:00,24.0,21.0,30.25,SSW,205,0.0,1.0,88,0.00,,,0.00,Wunderground v.1.15,2013-01-05 11:14:00,
2013-01-05 05:20:00,24.3,21.3,30.25,SSW,205,1.0,1.0,88,0.00,,,0.00,Wunderground v.1.15,2013-01-05 11:20:00,
2013-01-05 05:26:00,24.4,21.4,30.25,SSW,205,1.0,1.0,88,0.00,,,0.00,Wunderground v.1.15,2013-01-05 11:26:00,
2013-01-05 05:32:00,24.5,21.2,30.24,SSW,205,1.0,1.0,87,0.00,,,0.00,Wunderground v.1.15,2013-01-05 11:32:00,
2013-01-05 05:38:00,24.6,21.3,30.24,SSW,205,1.0,1.0,87,0.00,,,0.00,Wunderground v.1.15,2013-01-05 11:38:00,
2013-01-05 05:44:00,24.6,21.3,30.24,SSW,205,0.0,1.0,87,0.00,,,0.00,Wunderground v.1.15,2013-01-05 11:44:00,
2013-01-05 05:50:00,24.4,21.1,30.24,SSW,205,0.0,0.0,87,0.00,,,0.00,Wunderground v.1.15,2013-01-05 11:50:00,
2013-01-05 05:56:00,24.2,20.9,30.24,SSW,205,0.0,0.0,87,0.00,,,0.00,Wunderground v.1.15,2013-01-05 11:56:00,
2013-01-05 06:02:00,23.8,20.2,30.23,SSW,205,0.0,1.0,86,0.00,,,0.00,Wunderground v.1.15,2013-01-05 12:02:00,
2013-01-05 06:08:00,23.4,19.8,30.23,SSW,205,0.0,0.0,86,0.00,,,0.00,Wunderground v.1.15,2013-01-05 12:08:00,
2013-01-05 06:14:00,23.1,19.8,30.23,SSW,205,0.0,0.0,87,0.00,,,0.00,Wunderground v.1.15,2013-01-05 12:14:00,
2013-01-05 06:20:00,22.6,19.3,30.23,SSW,205,0.0,0.0,87,0.00,,,0.00,Wunderground v.1.15,2013-01-05 12:20:00,
2013-01-05 06:26:00,22.3,19.0,30.23,SSW,205,0.0,1.0,87,0.00,,,0.00,Wunderground v.1.15,2013-01-05 12:26:00,
2013-01-05 06:32:00,22.3,19.3,30.23,SSW,205,0.0,1.0,88,0.00,,,0.00,Wunderground v.1.15,2013-01-05 12:32:00,
2013-01-05 06:38:00,22.5,19.7,30.24,SSW,205,0.0,0.0,89,0.00,,,0.00,Wunderground v.1.15,2013-01-05 12:38:00,
2013-01-05 06:44:00,22.5,19.5,30.24,SSW,205,0.0,0.0,88,0.00,,,0.00,Wunderground v.1.15,2013-01-05 12:44:00,
2013-01-05 06:50:00,22.4,19.4,30.24,SSW,205,0.0,0.0,88,0.00,,,0.00,Wunderground v.1.15,2013-01-05 12:50:00,
2013-01-05 06:56:00,22.2,19.2,30.23,SSW,205,0.0,0.0,88,0.00,,,0.00,Wunderground v.1.15,2013-01-05 12:56:00,
2013-01-05 07:02:00,22.0,19.0,30.23,SSW,205,0.0,0.0,88,0.00,,,0.00,Wunderground v.1.15,2013-01-05 13:02:00,
2013-01-05 07:08:00,21.8,18.8,30.23,SSW,205,0.0,0.0,88,0.00,,,0.00,Wunderground v.1.15,2013-01-05 13:08:00,
2013-01-05 07:14:00,21.6,18.9,30.24,SSW,205,0.0,1.0,89,0.00,,,0.00,Wunderground v.1.15,2013-01-05 13:14:00,
2013-01-05 07:20:00,21.8,19.1,30.23,SSW,205,0.0,0.0,89,0.00,,,0.00,Wunderground v.1.15,2013-01-05 13:20:00,
2013-01-05 07:26:00,21.8,19.1,30.23,SSW,205,0.0,1.0,89,0.00,,,0.00,Wunderground v.1.15,2013-01-05 13:26:00,
2013-01-05 07:32:00,22.0,19.3,30.23,SSW,205,0.0,0.0,89,0.00,,,0.00,Wunderground v.1.15,2013-01-05 13:32:00,
2013-01-05 07:38:00,22.0,19.3,30.23,SSW,205,0.0,1.0,89,0.00,,,0.00,Wunderground v.1.15,2013-01-05 13:38:00,
2013-01-05 07:43:00,22.2,19.5,30.23,SSW,205,0.0,1.0,89,0.00,,,0.00,Wunderground v.1.15,2013-01-05 13:43:00,
2013-01-05 07:49:00,22.5,19.7,30.23,SSW,205,1.0,1.0,89,0.00,,,0.00,Wunderground v.1.15,2013-01-05 13:49:00,
2013-01-05 07:56:00,23.0,20.0,30.23,SSW,205,1.0,1.0,88,0.00,,,0.00,Wunderground v.1.15,2013-01-05 13:56:00,
2013-01-05 08:02:00,23.3,20.0,30.23,SSW,205,1.0,2.0,87,0.00,,,0.00,Wunderground v.1.15,2013-01-05 14:02:00,
2013-01-05 08:07:00,23.6,20.3,30.23,SSW,205,1.0,2.0,87,0.00,,,0.00,Wunderground v.1.15,2013-01-05 14:07:00,
2013-01-05 08:13:00,23.9,20.6,30.23,SSW,205,1.0,2.0,87,0.00,,,0.00,Wunderground v.1.15,2013-01-05 14:13:00,
2013-01-05 08:19:00,24.4,20.8,30.23,SSW,206,1.0,4.0,86,0.00,,,0.00,Wunderground v.1.15,2013-01-05 14:19:00,
2013-01-05 08:26:00,25.0,21.4,30.22,SSW,205,2.0,4.0,86,0.00,,,0.00,Wunderground v.1.15,2013-01-05 14:26:00,
2013-01-05 08:32:00,25.6,21.7,30.23,SW,219,2.0,4.0,85,0.00,,,0.00,Wunderground v.1.15,2013-01-05 14:32:00,
2013-01-05 08:37:00,26.3,22.4,30.23,SW,220,2.0,5.0,85,0.00,,,0.00,Wunderground v.1.15,2013-01-05 14:37:00,
2013-01-05 08:43:00,26.9,22.4,30.23,SSW,198,3.0,5.0,83,0.00,,,0.00,Wunderground v.1.15,2013-01-05 14:43:00,
2013-01-05 08:49:00,27.3,22.8,30.23,SSW,213,3.0,5.0,83,0.00,,,0.00,Wunderground v.1.15,2013-01-05 14:49:00,
2013-01-05 08:55:00,27.8,23.0,30.24,West,259,4.0,5.0,82,0.00,,,0.00,Wunderground v.1.15,2013-01-05 14:55:00,
2013-01-05 09:02:00,28.1,23.3,30.23,WSW,250,3.0,4.0,82,0.00,,,0.00,Wunderground v.1.15,2013-01-05 15:02:00,
2013-01-05 09:07:00,28.4,23.6,30.23,SW,216,3.0,3.0,82,0.00,,,0.00,Wunderground v.1.15,2013-01-05 15:07:00,
2013-01-05 09:13:00,28.9,24.1,30.23,South,190,3.0,4.0,82,0.00,,,0.00,Wunderground v.1.15,2013-01-05 15:13:00,
2013-01-05 09:18:00,29.2,24.4,30.23,SW,221,3.0,3.0,82,0.00,,,0.00,Wunderground v.1.15,2013-01-05 15:18:00,
2013-01-05 09:24:00,30.0,25.2,30.23,SW,217,3.0,5.0,82,0.00,,,0.00,Wunderground v.1.15,2013-01-05 15:24:00,
2013-01-05 09:30:00,30.7,25.3,30.23,SW,220,3.0,6.0,80,0.00,,,0.00,Wunderground v.1.15,2013-01-05 15:30:00,
2013-01-05 09:36:00,31.2,25.7,30.23,WSW,248,3.0,6.0,80,0.00,,,0.00,Wunderground v.1.15,2013-01-05 15:36:00,
2013-01-05 09:43:00,31.3,25.5,30.23,SSW,207,2.0,3.0,79,0.00,,,0.00,Wunderground v.1.15,2013-01-05 15:43:00,
2013-01-05 09:48:00,31.5,25.4,30.24,WSW,253,3.0,3.0,78,0.00,,,0.00,Wunderground v.1.15,2013-01-05 15:48:00,
2013-01-05 09:54:00,31.5,25.4,30.23,WSW,257,4.0,4.0,78,0.00,,,0.00,Wunderground v.1.15,2013-01-05 15:54:00,
2013-01-05 10:00:00,31.5,25.7,30.22,SW,232,2.0,3.0,79,0.00,,,0.00,Wunderground v.1.15,2013-01-05 16:00:00,
2013-01-05 10:06:00,31.6,25.8,30.22,WSW,250,2.0,4.0,79,0.00,,,0.00,Wunderground v.1.15,2013-01-05 16:06:00,
2013-01-05 10:13:00,32.0,26.2,30.21,SW,220,2.0,4.0,79,0.00,,,0.00,Wunderground v.1.15,2013-01-05 16:13:00,
2013-01-05 10:18:00,32.6,26.5,30.21,SSW,203,2.0,2.0,78,0.00,,,0.00,Wunderground v.1.15,2013-01-05 16:18:00,
2013-01-05 10:24:00,33.2,26.8,30.21,SW,223,3.0,6.0,77,0.00,,,0.00,Wunderground v.1.15,2013-01-05 16:24:00,
2013-01-05 10:30:00,33.5,26.7,30.21,West,261,4.0,4.0,76,0.00,,,0.00,Wunderground v.1.15,2013-01-05 16:30:00,
2013-01-05 10:36:00,33.8,27.0,30.21,WSW,257,4.0,4.0,76,0.00,,,0.00,Wunderground v.1.15,2013-01-05 16:36:00,
2013-01-05 10:42:00,34.4,27.3,30.21,WSW,248,5.0,7.0,75,0.00,,,0.00,Wunderground v.1.15,2013-01-05 16:42:00,
2013-01-05 10:48:00,35.2,28.1,30.21,SE,134,5.0,5.0,75,0.00,,,0.00,Wunderground v.1.15,2013-01-05 16:48:00,
2013-01-05 10:54:00,36.0,28.2,30.20,West,271,4.0,6.0,73,0.00,,,0.00,Wunderground v.1.15,2013-01-05 16:54:00,
2013-01-05 11:00:00,36.2,28.0,30.19,WSW,246,5.0,5.0,72,0.00,,,0.00,Wunderground v.1.15,2013-01-05 17:00:00,
2013-01-05 11:06:00,36.1,27.9,30.19,SW,223,3.0,5.0,72,0.00,,,0.00,Wunderground v.1.15,2013-01-05 17:06:00,
2013-01-05 11:12:00,36.1,27.9,30.19,WSW,250,2.0,3.0,72,0.00,,,0.00,Wunderground v.1.15,2013-01-05 17:12:00,
2013-01-05 11:18:00,36.2,28.0,30.19,SW,227,2.0,6.0,72,0.00,,,0.00,Wunderground v.1.15,2013-01-05 17:18:00,
2013-01-05 11:24:00,35.9,27.7,30.19,West,263,3.0,6.0,72,0.00,,,0.00,Wunderground v.1.15,2013-01-05 17:24:00,
2013-01-05 11:30:00,35.7,27.6,30.18,SW,233,4.0,5.0,72,0.00,,,0.00,Wunderground v.1.15,2013-01-05 17:30:00,
2013-01-05 11:36:00,35.6,27.8,30.18,West,263,4.0,8.0,73,0.00,,,0.00,Wunderground v.1.15,2013-01-05 17:36:00,
2013-01-05 11:42:00,35.6,27.8,30.18,SW,230,4.0,7.0,73,0.00,,,0.00,Wunderground v.1.15,2013-01-05 17:42:00,
2013-01-05 11:48:00,35.6,28.1,30.17,WSW,239,4.0,4.0,74,0.00,,,0.00,Wunderground v.1.15,2013-01-05 17:48:00,
2013-01-05 11:54:00,35.7,28.2,30.17,WSW,248,3.0,6.0,74,0.00,,,0.00,Wunderground v.1.15,2013-01-05 17:54:00,
2013-01-05 12:00:00,35.9,28.4,30.17,WSW,243,4.0,5.0,74,0.00,,,0.00,Wunderground v.1.15,2013-01-05 18:00:00,
2013-01-05 12:06:00,36.0,28.5,30.17,West,263,5.0,6.0,74,0.00,,,0.00,Wunderground v.1.15,2013-01-05 18:06:00,
2013-01-05 12:12:00,36.1,28.6,30.17,SW,236,5.0,6.0,74,0.00,,,0.00,Wunderground v.1.15,2013-01-05 18:12:00,
2013-01-05 12:18:00,36.1,28.6,30.16,West,260,4.0,6.0,74,0.00,,,0.00,Wunderground v.1.15,2013-01-05 18:18:00,
2013-01-05 12:24:00,36.3,28.8,30.15,WSW,241,6.0,8.0,74,0.00,,,0.00,Wunderground v.1.15,2013-01-05 18:24:00,
2013-01-05 12:30:00,36.6,29.1,30.15,SSW,209,6.0,8.0,74,0.00,,,0.00,Wunderground v.1.15,2013-01-05 18:30:00,
2013-01-05 12:36:00,36.7,29.2,30.16,SSW,211,5.0,8.0,74,0.00,,,0.00,Wunderground v.1.15,2013-01-05 18:36:00,
2013-01-05 12:42:00,36.7,29.2,30.15,WSW,257,5.0,5.0,74,0.00,,,0.00,Wunderground v.1.15,2013-01-05 18:42:00,
2013-01-05 12:48:00,36.7,29.2,30.15,SW,229,5.0,5.0,74,0.00,,,0.00,Wunderground v.1.15,2013-01-05 18:48:00,
2013-01-05 12:54:00,36.3,30.7,30.15,WSW,252,6.0,7.0,80,0.00,,,0.00,Wunderground v.1.15,2013-01-05 18:54:00,
2013-01-05 13:00:00,35.1,30.8,30.15,SW,222,6.0,7.0,84,0.00,,,0.00,Wunderground v.1.15,2013-01-05 19:00:00,
2013-01-05 13:06:00,34.6,31.1,30.14,WSW,258,4.0,7.0,87,0.00,,,0.00,Wunderground v.1.15,2013-01-05 19:06:00,
2013-01-05 13:12:00,34.3,31.1,30.14,SSW,202,3.0,4.0,88,0.00,,,0.00,Wunderground v.1.15,2013-01-05 19:12:00,
2013-01-05 13:18:00,34.1,31.2,30.14,SSW,204,3.0,3.0,89,0.00,,,0.00,Wunderground v.1.15,2013-01-05 19:18:00,
2013-01-05 13:23:00,34.0,31.4,30.13,SW,215,2.0,3.0,90,0.00,,,0.00,Wunderground v.1.15,2013-01-05 19:23:00,
2013-01-05 13:30:00,33.9,31.6,30.12,SW,219,2.0,2.0,91,0.00,,,0.00,Wunderground v.1.15,2013-01-05 19:30:00,
2013-01-05 13:35:00,33.9,31.6,30.12,SSW,203,2.0,2.0,91,0.00,,,0.00,Wunderground v.1.15,2013-01-05 19:35:00,
2013-01-05 13:42:00,33.9,31.8,30.12,SW,228,2.0,3.0,92,0.00,,,0.00,Wunderground v.1.15,2013-01-05 19:42:00,
2013-01-05 13:48:00,34.2,32.1,30.11,WSW,250,3.0,3.0,92,0.00,,,0.01,Wunderground v.1.15,2013-01-05 19:48:00,
2013-01-05 13:53:00,34.3,32.2,30.11,SW,230,2.0,4.0,92,0.00,,,0.01,Wunderground v.1.15,2013-01-05 19:53:00,
2013-01-05 14:00:00,34.5,32.4,30.11,SSE,161,2.0,3.0,92,0.07,,,0.02,Wunderground v.1.15,2013-01-05 20:00:00,
2013-01-05 14:05:00,34.5,32.4,30.11,SSW,201,3.0,6.0,92,0.05,,,0.02,Wunderground v.1.15,2013-01-05 20:05:00,
2013-01-05 14:12:00,34.6,32.5,30.10,SSW,202,2.0,2.0,92,0.00,,,0.02,Wunderground v.1.15,2013-01-05 20:12:00,
2013-01-05 14:17:00,34.7,32.6,30.09,SW,215,2.0,3.0,92,0.00,,,0.02,Wunderground v.1.15,2013-01-05 20:17:00,
2013-01-05 14:23:00,34.8,32.7,30.09,SSW,205,2.0,3.0,92,0.00,,,0.02,Wunderground v.1.15,2013-01-05 20:23:00,
2013-01-05 14:29:00,34.8,32.7,30.09,South,180,2.0,4.0,92,0.00,,,0.02,Wunderground v.1.15,2013-01-05 20:29:00,
2013-01-05 14:35:00,34.9,32.8,30.08,SW,218,2.0,4.0,92,0.00,,,0.02,Wunderground v.1.15,2013-01-05 20:35:00,
2013-01-05 14:42:00,35.0,32.9,30.08,SSW,213,1.0,5.0,92,0.00,,,0.02,Wunderground v.1.15,2013-01-05 20:42:00,
2013-01-05 14:47:00,35.1,33.0,30.08,SSW,201,2.0,2.0,92,0.00,,,0.02,Wunderground v.1.15,2013-01-05 20:47:00,
2013-01-05 14:53:00,35.3,33.2,30.08,SW,217,2.0,2.0,92,0.00,,,0.02,Wunderground v.1.15,2013-01-05 20:53:00,
2013-01-05 14:59:00,35.2,33.1,30.08,SSW,213,2.0,2.0,92,0.00,,,0.02,Wunderground v.1.15,2013-01-05 20:59:00,
2013-01-05 15:05:00,35.1,32.7,30.08,SSW,205,2.0,3.0,91,0.00,,,0.02,Wunderground v.1.15,2013-01-05 21:05:00,
2013-01-05 15:12:00,35.2,33.1,30.08,SSE,165,2.0,2.0,92,0.00,,,0.02,Wunderground v.1.15,2013-01-05 21:12:00,
2013-01-05 15:18:00,35.2,32.8,30.09,SW,227,3.0,3.0,91,0.00,,,0.02,Wunderground v.1.15,2013-01-05 21:18:00,
2013-01-05 15:24:00,35.2,32.8,30.09,SSW,198,3.0,4.0,91,0.00,,,0.02,Wunderground v.1.15,2013-01-05 21:24:00,
2013-01-05 15:30:00,35.2,32.8,30.08,SW,225,3.0,7.0,91,0.00,,,0.02,Wunderground v.1.15,2013-01-05 21:30:00,
2013-01-05 15:36:00,35.1,33.0,30.08,SSW,209,3.0,7.0,92,0.00,,,0.02,Wunderground v.1.15,2013-01-05 21:36:00,
2013-01-05 15:42:00,35.1,33.0,30.08,SSE,154,3.0,3.0,92,0.00,,,0.02,Wunderground v.1.15,2013-01-05 21:42:00,
2013-01-05 15:48:00,35.1,33.0,30.08,SW,214,3.0,3.0,92,0.00,,,0.02,Wunderground v.1.15,2013-01-05 21:48:00,
2013-01-05 15:54:00,35.0,32.9,30.08,SW,227,3.0,3.0,92,0.00,,,0.02,Wunderground v.1.15,2013-01-05 21:54:00,
2013-01-05 16:00:00,35.1,33.0,30.07,SW,219,3.0,7.0,92,0.00,,,0.02,Wunderground v.1.15,2013-01-05 22:00:00,
2013-01-05 16:06:00,35.1,33.0,30.07,SW,220,3.0,7.0,92,0.00,,,0.02,Wunderground v.1.15,2013-01-05 22:06:00,
2013-01-05 16:12:00,35.0,32.6,30.07,SW,226,3.0,6.0,91,0.00,,,0.02,Wunderground v.1.15,2013-01-05 22:12:00,
2013-01-05 16:18:00,35.0,32.6,30.07,SW,227,3.0,3.0,91,0.00,,,0.02,Wunderground v.1.15,2013-01-05 22:18:00,
2013-01-05 16:24:00,35.0,32.6,30.08,SW,221,4.0,4.0,91,0.00,,,0.02,Wunderground v.1.15,2013-01-05 22:24:00,
2013-01-05 16:30:00,35.0,32.6,30.08,SW,229,5.0,7.0,91,0.00,,,0.02,Wunderground v.1.15,2013-01-05 22:30:00,
2013-01-05 16:36:00,35.1,32.7,30.08,South,180,4.0,7.0,91,0.00,,,0.02,Wunderground v.1.15,2013-01-05 22:36:00,
2013-01-05 16:43:00,35.1,32.7,30.08,SW,223,3.0,5.0,91,0.00,,,0.02,Wunderground v.1.15,2013-01-05 22:43:00,
2013-01-05 16:48:00,35.1,32.7,30.07,South,175,3.0,5.0,91,0.00,,,0.02,Wunderground v.1.15,2013-01-05 22:48:00,
2013-01-05 16:54:00,35.1,32.5,30.07,SSW,209,4.0,5.0,90,0.00,,,0.02,Wunderground v.1.15,2013-01-05 22:54:00,
2013-01-05 17:00:00,35.0,32.4,30.07,SW,217,4.0,4.0,90,0.00,,,0.02,Wunderground v.1.15,2013-01-05 23:00:00,
2013-01-05 17:06:00,35.0,32.4,30.08,SSW,213,4.0,9.0,90,0.00,,,0.02,Wunderground v.1.15,2013-01-05 23:06:00,
2013-01-05 17:12:00,35.0,32.1,30.07,WSW,240,5.0,6.0,89,0.00,,,0.02,Wunderground v.1.15,2013-01-05 23:12:00,
2013-01-05 17:18:00,35.0,32.1,30.07,SSE,153,5.0,5.0,89,0.00,,,0.02,Wunderground v.1.15,2013-01-05 23:18:00,
2013-01-05 17:24:00,35.0,31.8,30.07,SW,228,5.0,5.0,88,0.00,,,0.02,Wunderground v.1.15,2013-01-05 23:24:00,
2013-01-05 17:30:00,35.0,31.8,30.06,SSW,196,5.0,8.0,88,0.00,,,0.02,Wunderground v.1.15,2013-01-05 23:30:00,
2013-01-05 17:36:00,35.0,31.8,30.06,SW,222,5.0,8.0,88,0.00,,,0.02,Wunderground v.1.15,2013-01-05 23:36:00,
2013-01-05 17:42:00,35.0,31.8,30.06,SW,229,5.0,7.0,88,0.00,,,0.02,Wunderground v.1.15,2013-01-05 23:42:00,
2013-01-05 17:48:00,35.0,31.8,30.06,WSW,256,4.0,4.0,88,0.00,,,0.02,Wunderground v.1.15,2013-01-05 23:48:00,
2013-01-05 17:54:00,35.0,31.8,30.07,SSW,209,5.0,5.0,88,0.00,,,0.02,Wunderground v.1.15,2013-01-05 23:54:00,
2013-01-05 18:00:00,35.1,31.9,30.07,SW,232,4.0,6.0,88,0.00,,,0.02,Wunderground v.1.15,2013-01-06 00:00:00,
2013-01-05 18:06:00,35.2,32.0,30.06,SW,223,4.0,6.0,88,0.00,,,0.02,Wunderground v.1.15,2013-01-06 00:06:00,
2013-01-05 18:12:00,35.2,32.0,30.06,SW,233,4.0,6.0,88,0.00,,,0.02,Wunderground v.1.15,2013-01-06 00:12:00,
2013-01-05 18:18:00,35.3,32.1,30.07,SSW,204,5.0,5.0,88,0.00,,,0.02,Wunderground v.1.15,2013-01-06 00:18:00,
2013-01-05 18:24:00,35.4,32.2,30.07,SW,226,4.0,7.0,88,0.00,,,0.02,Wunderground v.1.15,2013-01-06 00:24:00,
2013-01-05 18:30:00,35.6,32.4,30.07,SSW,207,3.0,4.0,88,0.00,,,0.02,Wunderground v.1.15,2013-01-06 00:30:00,
2013-01-05 18:35:00,35.8,32.9,30.07,SW,225,5.0,5.0,89,0.00,,,0.02,Wunderground v.1.15,2013-01-06 00:35:00,
2013-01-05 18:42:00,36.0,32.8,30.07,SW,217,4.0,5.0,88,0.00,,,0.02,Wunderground v.1.15,2013-01-06 00:42:00,
2013-01-05 18:48:00,36.1,33.2,30.07,SW,218,4.0,4.0,89,0.00,,,0.02,Wunderground v.1.15,2013-01-06 00:48:00,
2013-01-05 18:53:00,36.1,33.2,30.07,SW,232,4.0,7.0,89,0.00,,,0.02,Wunderground v.1.15,2013-01-06 00:53:00,
2013-01-05 19:00:00,36.1,33.2,30.07,SSW,198,4.0,9.0,89,0.00,,,0.02,Wunderground v.1.15,2013-01-06 01:00:00,
2013-01-05 19:05:00,36.1,33.2,30.07,West,263,5.0,9.0,89,0.00,,,0.02,Wunderground v.1.15,2013-01-06 01:05:00,
2013-01-05 19:12:00,36.0,33.1,30.07,SSW,202,5.0,7.0,89,0.00,,,0.02,Wunderground v.1.15,2013-01-06 01:12:00,
2013-01-05 19:18:00,36.0,33.4,30.07,WSW,242,5.0,5.0,90,0.00,,,0.02,Wunderground v.1.15,2013-01-06 01:18:00,
2013-01-05 19:23:00,35.9,33.3,30.06,SSW,197,5.0,15.0,90,0.00,,,0.02,Wunderground v.1.15,2013-01-06 01:23:00,
2013-01-05 19:29:00,35.9,33.3,30.07,SW,215,6.0,8.0,90,0.00,,,0.02,Wunderground v.1.15,2013-01-06 01:29:00,
2013-01-05 19:35:00,35.8,33.2,30.07,South,171,6.0,8.0,90,0.00,,,0.02,Wunderground v.1.15,2013-01-06 01:35:00,
2013-01-05 19:42:00,35.8,33.4,30.06,WSW,255,5.0,10.0,91,0.00,,,0.02,Wunderground v.1.15,2013-01-06 01:42:00,
2013-01-05 19:47:00,35.7,33.3,30.06,SW,228,5.0,5.0,91,0.00,,,0.02,Wunderground v.1.15,2013-01-06 01:47:00,
2013-01-05 19:53:00,35.7,33.3,30.06,West,267,5.0,8.0,91,0.00,,,0.02,Wunderground v.1.15,2013-01-06 01:53:00,
2013-01-05 19:59:00,35.7,33.3,30.05,SW,226,5.0,5.0,91,0.00,,,0.02,Wunderground v.1.15,2013-01-06 01:59:00,
2013-01-05 20:05:00,35.8,33.4,30.05,SW,227,5.0,7.0,91,0.00,,,0.02,Wunderground v.1.15,2013-01-06 02:05:00,
2013-01-05 20:12:00,35.8,33.4,30.05,West,266,6.0,6.0,91,0.00,,,0.02,Wunderground v.1.15,2013-01-06 02:12:00,
2013-01-05 20:18:00,35.9,33.5,30.05,WSW,257,5.0,5.0,91,0.00,,,0.02,Wunderground v.1.15,2013-01-06 02:18:00,
2013-01-05 20:24:00,35.9,33.5,30.05,SSW,211,5.0,8.0,91,0.00,,,0.02,Wunderground v.1.15,2013-01-06 02:24:00,
2013-01-05 20:30:00,35.9,33.5,30.05,West,265,5.0,8.0,91,0.00,,,0.02,Wunderground v.1.15,2013-01-06 02:30:00,
2013-01-05 20:36:00,36.0,33.6,30.05,WSW,248,5.0,8.0,91,0.00,,,0.02,Wunderground v.1.15,2013-01-06 02:36:00,
2013-01-05 20:43:00,36.0,33.6,30.05,WSW,238,5.0,11.0,91,0.00,,,0.02,Wunderground v.1.15,2013-01-06 02:43:00,
2013-01-05 20:48:00,36.0,33.6,30.04,West,265,5.0,5.0,91,0.00,,,0.02,Wunderground v.1.15,2013-01-06 02:48:00,
2013-01-05 20:54:00,36.0,33.4,30.04,WSW,247,5.0,5.0,90,0.00,,,0.02,Wunderground v.1.15,2013-01-06 02:54:00,
2013-01-05 21:00:00,36.0,33.4,30.04,WSW,248,4.0,5.0,90,0.00,,,0.02,Wunderground v.1.15,2013-01-06 03:00:00,
2013-01-05 21:06:00,36.0,33.4,30.04,West,259,4.0,6.0,90,0.00,,,0.02,Wunderground v.1.15,2013-01-06 03:06:00,
2013-01-05 21:12:00,36.1,33.5,30.04,SSW,198,4.0,5.0,90,0.00,,,0.02,Wunderground v.1.15,2013-01-06 03:12:00,
2013-01-05 21:18:00,36.1,33.5,30.04,WSW,257,4.0,4.0,90,0.00,,,0.02,Wunderground v.1.15,2013-01-06 03:18:00,
2013-01-05 21:24:00,36.1,33.5,30.03,West,272,4.0,7.0,90,0.00,,,0.02,Wunderground v.1.15,2013-01-06 03:24:00,
2013-01-05 21:30:00,36.1,33.5,30.03,West,273,4.0,6.0,90,0.00,,,0.02,Wunderground v.1.15,2013-01-06 03:30:00,
2013-01-05 21:36:00,36.1,33.5,30.03,SW,233,4.0,6.0,90,0.00,,,0.02,Wunderground v.1.15,2013-01-06 03:36:00,
2013-01-05 21:43:00,36.1,33.5,30.02,SW,221,4.0,5.0,90,0.00,,,0.02,Wunderground v.1.15,2013-01-06 03:43:00,
2013-01-05 21:48:00,36.1,33.5,30.02,WSW,249,3.0,3.0,90,0.00,,,0.02,Wunderground v.1.15,2013-01-06 03:48:00,
2013-01-05 21:54:00,36.1,33.5,30.02,SW,224,4.0,6.0,90,0.00,,,0.02,Wunderground v.1.15,2013-01-06 03:54:00,
2013-01-05 22:00:00,36.1,33.5,30.02,West,261,4.0,7.0,90,0.00,,,0.02,Wunderground v.1.15,2013-01-06 04:00:00,
2013-01-05 22:06:00,36.1,33.5,30.02,SW,234,3.0,7.0,90,0.00,,,0.02,Wunderground v.1.15,2013-01-06 04:06:00,
2013-01-05 22:12:00,36.1,33.5,30.02,West,265,3.0,7.0,90,0.00,,,0.02,Wunderground v.1.15,2013-01-06 04:12:00,
2013-01-05 22:18:00,36.2,33.5,30.02,WSW,246,3.0,4.0,90,0.00,,,0.02,Wunderground v.1.15,2013-01-06 04:18:00,
2013-01-05 22:24:00,36.2,33.5,30.01,SSW,212,4.0,7.0,90,0.00,,,0.02,Wunderground v.1.15,2013-01-06 04:24:00,
2013-01-05 22:30:00,36.2,33.5,30.01,West,261,4.0,4.0,90,0.00,,,0.02,Wunderground v.1.15,2013-01-06 04:30:00,
2013-01-05 22:36:00,36.2,33.5,30.01,WSW,256,4.0,5.0,90,0.00,,,0.02,Wunderground v.1.15,2013-01-06 04:36:00,
2013-01-05 22:42:00,36.2,33.3,30.01,WNW,296,4.0,4.0,89,0.00,,,0.02,Wunderground v.1.15,2013-01-06 04:42:00,
2013-01-05 22:48:00,36.2,33.5,30.01,SW,235,3.0,5.0,90,0.00,,,0.02,Wunderground v.1.15,2013-01-06 04:48:00,
2013-01-05 22:54:00,36.2,33.5,30.00,SSW,194,5.0,5.0,90,0.00,,,0.02,Wunderground v.1.15,2013-01-06 04:54:00,
2013-01-05 23:00:00,36.2,33.3,30.00,SW,228,4.0,4.0,89,0.00,,,0.02,Wunderground v.1.15,2013-01-06 05:00:00,
2013-01-05 23:02:00,36.2,33.3,30.00,SW,226,4.0,4.0,89,0.00,,,0.02,Wunderground v.1.15,2013-01-06 05:02:00,
2013-01-05 23:04:00,36.2,33.3,30.00,SW,226,4.0,4.0,89,0.00,,,0.02,Wunderground v.1.15,2013-01-06 05:04:00,
2013-01-05 23:10:00,36.2,33.5,30.00,WSW,246,4.0,8.0,90,0.00,,,0.02,Wunderground v.1.15,2013-01-06 05:10:00,
2013-01-05 23:16:00,36.3,33.4,30.00,SW,223,4.0,8.0,89,0.00,,,0.02,Wunderground v.1.15,2013-01-06 05:16:00,
2013-01-05 23:22:00,36.3,33.4,29.99,SSW,206,4.0,4.0,89,0.00,,,0.02,Wunderground v.1.15,2013-01-06 05:22:00,
2013-01-05 23:28:00,36.3,33.4,29.99,West,259,4.0,4.0,89,0.00,,,0.02,Wunderground v.1.15,2013-01-06 05:28:00,
2013-01-05 23:34:00,36.2,33.3,29.99,SW,219,4.0,5.0,89,0.00,,,0.02,Wunderground v.1.15,2013-01-06 05:34:00,
2013-01-05 23:40:00,36.3,33.4,29.99,WSW,257,4.0,5.0,89,0.00,,,0.02,Wunderground v.1.15,2013-01-06 05:40:00,
2013-01-05 23:46:00,36.4,33.5,29.99,SSW,211,4.0,5.0,89,0.00,,,0.02,Wunderground v.1.15,2013-01-06 05:46:00,
2013-01-05 23:52:00,36.4,33.5,29.99,SW,236,4.0,7.0,89,0.00,,,0.02,Wunderground v.1.15,2013-01-06 05:52:00,
2013-01-05 23:58:00,36.4,33.5,29.99,WSW,248,4.0,6.0,89,0.00,,,0.02,Wunderground v.1.15,2013-01-06 05:58:00,